Time,TemperatureF,DewpointF,PressureIn,WindDirection,WindDirectionDegrees,WindSpeedMPH,WindSpeedGustMPH,Humidity,HourlyPrecipIn,Conditions,Clouds,dailyrainin,SolarRadiationWatts/m^2,SoftwareType,DateUTC
2013-08-25 00:02:00,58.6,58.0,29.89,North,-999,0.0,0.0,96,0.00,,,0.00,0,weatherlink.com 1.10,2013-08-25 07:02:00,
2013-08-25 00:17:00,58.4,57.0,29.89,North,-999,0.0,0.0,96,0.00,,,0.00,0,weatherlink.com 1.10,2013-08-25 07:17:00,
2013-08-25 00:32:00,58.2,57.0,29.89,North,-999,0.0,0.0,96,0.00,,,0.00,0,weatherlink.com 1.10,2013-08-25 07:32:00,
2013-08-25 00:47:00,58.1,57.0,29.89,North,-999,0.0,0.0,96,0.00,,,0.00,0,weatherlink.com 1.10,2013-08-25 07:47:00,
2013-08-25 01:02:00,58.1,57.0,29.89,North,-999,0.0,0.0,96,0.00,,,0.00,0,weatherlink.com 1.10,2013-08-25 08:02:00,
2013-08-25 01:17:00,58.0,57.0,29.89,North,360,0.0,0.0,96,0.00,,,0.00,0,weatherlink.com 1.10,2013-08-25 08:17:00,
2013-08-25 01:32:00,58.0,57.0,29.89,North,360,0.0,0.0,96,0.00,,,0.00,0,weatherlink.com 1.10,2013-08-25 08:32:00,
2013-08-25 01:47:00,57.9,57.0,29.89,North,360,0.0,0.0,96,0.00,,,0.00,0,weatherlink.com 1.10,2013-08-25 08:47:00,
2013-08-25 02:03:00,57.9,57.0,29.88,North,-999,0.0,0.0,96,0.00,,,0.00,0,weatherlink.com 1.10,2013-08-25 09:03:00,
2013-08-25 02:17:00,57.9,57.0,29.89,North,360,0.0,0.0,96,0.00,,,0.00,0,weatherlink.com 1.10,2013-08-25 09:17:00,
2013-08-25 02:32:00,57.9,57.0,29.89,North,-999,0.0,0.0,96,0.00,,,0.00,0,weatherlink.com 1.10,2013-08-25 09:32:00,
2013-08-25 02:47:00,57.9,57.0,29.89,North,-999,0.0,0.0,96,0.00,,,0.00,0,weatherlink.com 1.10,2013-08-25 09:47:00,
2013-08-25 03:02:00,58.1,57.0,29.89,North,-999,0.0,0.0,97,0.00,,,0.00,0,weatherlink.com 1.10,2013-08-25 10:02:00,
2013-08-25 03:17:00,58.1,57.0,29.89,North,-999,0.0,0.0,97,0.00,,,0.00,0,weatherlink.com 1.10,2013-08-25 10:17:00,
2013-08-25 03:32:00,58.1,57.0,29.89,North,-999,0.0,0.0,97,0.00,,,0.00,0,weatherlink.com 1.10,2013-08-25 10:32:00,
2013-08-25 03:47:00,58.2,57.0,29.89,North,360,0.0,0.0,97,0.00,,,0.00,0,weatherlink.com 1.10,2013-08-25 10:47:00,
2013-08-25 04:02:00,58.2,57.0,29.89,North,360,0.0,0.0,97,0.00,,,0.00,0,weatherlink.com 1.10,2013-08-25 11:02:00,
2013-08-25 04:17:00,58.2,57.0,29.89,North,-999,0.0,0.0,97,0.00,,,0.00,0,weatherlink.com 1.10,2013-08-25 11:17:00,
2013-08-25 04:32:00,58.1,57.0,29.89,North,360,0.0,0.0,97,0.00,,,0.00,0,weatherlink.com 1.10,2013-08-25 11:32:00,
2013-08-25 04:47:00,58.1,57.0,29.89,North,-999,0.0,0.0,97,0.00,,,0.00,0,weatherlink.com 1.10,2013-08-25 11:47:00,
2013-08-25 05:02:00,58.3,58.0,29.89,North,-999,0.0,0.0,97,0.00,,,0.00,0,weatherlink.com 1.10,2013-08-25 12:02:00,
2013-08-25 05:17:00,58.3,58.0,29.90,North,-999,0.0,0.0,97,0.00,,,0.00,0,weatherlink.com 1.10,2013-08-25 12:17:00,
2013-08-25 05:32:00,58.4,58.0,29.89,North,-999,0.0,0.0,97,0.00,,,0.00,0,weatherlink.com 1.10,2013-08-25 12:32:00,
2013-08-25 05:47:00,58.4,58.0,29.89,North,360,0.0,0.0,97,0.00,,,0.00,0,weatherlink.com 1.10,2013-08-25 12:47:00,
2013-08-25 06:02:00,58.5,58.0,29.90,North,360,0.0,0.0,97,0.00,,,0.00,0,weatherlink.com 1.10,2013-08-25 13:02:00,
2013-08-25 06:17:00,58.6,58.0,29.90,North,360,0.0,0.0,97,0.00,,,0.00,0,weatherlink.com 1.10,2013-08-25 13:17:00,
2013-08-25 06:32:00,58.7,58.0,29.90,North,-999,0.0,0.0,97,0.00,,,0.00,0,weatherlink.com 1.10,2013-08-25 13:32:00,
2013-08-25 06:47:00,58.8,58.0,29.91,North,-999,0.0,0.0,97,0.00,,,0.00,0,weatherlink.com 1.10,2013-08-25 13:47:00,
2013-08-25 07:02:00,59.0,58.0,29.91,North,360,0.0,0.0,97,0.00,,,0.00,7,weatherlink.com 1.10,2013-08-25 14:02:00,
2013-08-25 07:17:00,59.1,58.0,29.91,North,-999,0.0,0.0,97,0.00,,,0.00,14,weatherlink.com 1.10,2013-08-25 14:17:00,
2013-08-25 07:32:00,59.4,59.0,29.91,North,360,0.0,0.0,97,0.00,,,0.00,33,weatherlink.com 1.10,2013-08-25 14:32:00,
2013-08-25 07:47:00,59.7,59.0,29.91,North,-999,0.0,0.0,97,0.01,,,0.01,63,weatherlink.com 1.10,2013-08-25 14:47:00,
2013-08-25 08:02:00,60.2,59.0,29.91,North,-999,0.0,0.0,97,0.01,,,0.01,70,weatherlink.com 1.10,2013-08-25 15:02:00,
2013-08-25 08:17:00,60.5,60.0,29.92,North,360,0.0,0.0,97,0.01,,,0.01,107,weatherlink.com 1.10,2013-08-25 15:17:00,
2013-08-25 08:32:00,60.9,60.0,29.92,North,360,0.0,0.0,98,0.00,,,0.01,91,weatherlink.com 1.10,2013-08-25 15:32:00,
2013-08-25 08:47:00,61.3,61.0,29.91,North,360,0.0,0.0,97,0.00,,,0.01,158,weatherlink.com 1.10,2013-08-25 15:47:00,
2013-08-25 09:02:00,61.6,61.0,29.92,North,360,0.0,0.0,98,0.00,,,0.01,188,weatherlink.com 1.10,2013-08-25 16:02:00,
2013-08-25 09:17:00,62.1,62.0,29.92,North,-999,0.0,0.0,98,0.00,,,0.01,200,weatherlink.com 1.10,2013-08-25 16:17:00,
2013-08-25 09:33:00,62.3,62.0,29.92,North,-999,0.0,0.0,97,0.00,,,0.01,315,weatherlink.com 1.10,2013-08-25 16:33:00,
2013-08-25 09:48:00,62.0,61.0,29.92,North,-999,0.0,0.0,97,0.00,,,0.01,271,weatherlink.com 1.10,2013-08-25 16:48:00,
2013-08-25 10:03:00,62.7,62.0,29.93,North,360,0.0,0.0,97,0.00,,,0.01,246,weatherlink.com 1.10,2013-08-25 17:03:00,
2013-08-25 10:18:00,63.7,63.0,29.93,North,-999,0.0,0.0,97,0.00,,,0.01,462,weatherlink.com 1.10,2013-08-25 17:18:00,
2013-08-25 10:33:00,64.6,63.0,29.93,North,-999,0.0,0.0,95,0.00,,,0.01,190,weatherlink.com 1.10,2013-08-25 17:33:00,
2013-08-25 10:48:00,64.8,63.0,29.94,North,-999,0.0,0.0,93,0.00,,,0.01,160,weatherlink.com 1.10,2013-08-25 17:48:00,
2013-08-25 11:03:00,65.5,63.0,29.94,North,-999,0.0,0.0,91,0.00,,,0.01,403,weatherlink.com 1.10,2013-08-25 18:03:00,
2013-08-25 11:18:00,66.7,63.0,29.94,North,-999,0.0,0.0,88,0.00,,,0.01,346,weatherlink.com 1.10,2013-08-25 18:18:00,
2013-08-25 11:33:00,66.8,63.0,29.93,North,-999,0.0,0.0,87,0.00,,,0.01,900,weatherlink.com 1.10,2013-08-25 18:33:00,
2013-08-25 11:48:00,66.7,63.0,29.93,North,-999,0.0,0.0,87,0.00,,,0.01,359,weatherlink.com 1.10,2013-08-25 18:48:00,
2013-08-25 12:03:00,66.7,62.0,29.93,North,-999,0.0,0.0,86,0.00,,,0.01,279,weatherlink.com 1.10,2013-08-25 19:03:00,
2013-08-25 12:18:00,67.2,63.0,29.93,North,-999,0.0,0.0,86,0.00,,,0.01,448,weatherlink.com 1.10,2013-08-25 19:18:00,
2013-08-25 12:33:00,67.3,63.0,29.93,North,-999,0.0,0.0,85,0.00,,,0.01,369,weatherlink.com 1.10,2013-08-25 19:33:00,
2013-08-25 12:48:00,67.3,62.0,29.93,North,-999,0.0,0.0,84,0.00,,,0.01,265,weatherlink.com 1.10,2013-08-25 19:48:00,
2013-08-25 13:03:00,67.2,63.0,29.93,North,360,0.0,0.0,85,0.00,,,0.01,332,weatherlink.com 1.10,2013-08-25 20:03:00,
2013-08-25 13:18:00,67.4,62.0,29.93,North,360,0.0,0.0,83,0.00,,,0.01,246,weatherlink.com 1.10,2013-08-25 20:18:00,
2013-08-25 13:33:00,66.7,62.0,29.93,North,-999,0.0,0.0,84,0.00,,,0.01,174,weatherlink.com 1.10,2013-08-25 20:33:00,
2013-08-25 13:48:00,66.3,62.0,29.93,North,360,0.0,0.0,86,0.00,,,0.01,195,weatherlink.com 1.10,2013-08-25 20:48:00,
2013-08-25 14:03:00,66.0,62.0,29.93,North,-999,0.0,0.0,86,0.00,,,0.01,199,weatherlink.com 1.10,2013-08-25 21:03:00,
2013-08-25 14:18:00,65.7,62.0,29.93,North,-999,0.0,0.0,86,0.00,,,0.01,214,weatherlink.com 1.10,2013-08-25 21:18:00,
2013-08-25 14:33:00,66.0,62.0,29.93,North,-999,0.0,0.0,86,0.00,,,0.01,199,weatherlink.com 1.10,2013-08-25 21:33:00,
2013-08-25 14:48:00,65.7,62.0,29.93,North,-999,0.0,0.0,86,0.00,,,0.01,183,weatherlink.com 1.10,2013-08-25 21:48:00,
2013-08-25 15:03:00,65.5,61.0,29.93,North,360,0.0,0.0,86,0.00,,,0.01,172,weatherlink.com 1.10,2013-08-25 22:03:00,
2013-08-25 15:18:00,65.3,61.0,29.92,North,360,0.0,0.0,87,0.00,,,0.01,169,weatherlink.com 1.10,2013-08-25 22:18:00,
2013-08-25 15:33:00,65.3,61.0,29.92,North,360,0.0,0.0,87,0.00,,,0.01,200,weatherlink.com 1.10,2013-08-25 22:33:00,
2013-08-25 15:48:00,65.1,61.0,29.92,North,-999,0.0,0.0,87,0.00,,,0.01,123,weatherlink.com 1.10,2013-08-25 22:48:00,
2013-08-25 16:03:00,64.2,61.0,29.92,North,-999,0.0,0.0,88,0.00,,,0.01,134,weatherlink.com 1.10,2013-08-25 23:03:00,
2013-08-25 16:18:00,63.9,61.0,29.91,North,-999,0.0,0.0,89,0.00,,,0.01,142,weatherlink.com 1.10,2013-08-25 23:18:00,
2013-08-25 16:33:00,64.1,61.0,29.91,North,-999,0.0,0.0,88,0.00,,,0.01,148,weatherlink.com 1.10,2013-08-25 23:33:00,
2013-08-25 16:48:00,64.3,61.0,29.91,North,360,0.0,0.0,88,0.00,,,0.01,142,weatherlink.com 1.10,2013-08-25 23:48:00,
2013-08-25 17:03:00,64.4,61.0,29.90,North,-999,0.0,0.0,87,0.00,,,0.01,77,weatherlink.com 1.10,2013-08-26 00:03:00,
2013-08-25 17:18:00,64.2,60.0,29.90,North,360,0.0,0.0,87,0.00,,,0.01,97,weatherlink.com 1.10,2013-08-26 00:18:00,
2013-08-25 17:33:00,64.0,60.0,29.90,North,-999,0.0,0.0,88,0.00,,,0.01,70,weatherlink.com 1.10,2013-08-26 00:33:00,
2013-08-25 17:48:00,64.0,60.0,29.90,North,-999,0.0,0.0,88,0.00,,,0.01,86,weatherlink.com 1.10,2013-08-26 00:48:00,
2013-08-25 18:03:00,63.6,60.0,29.90,North,-999,0.0,0.0,88,0.00,,,0.01,93,weatherlink.com 1.10,2013-08-26 01:03:00,
2013-08-25 18:18:00,63.2,60.0,29.90,North,-999,0.0,0.0,89,0.00,,,0.01,79,weatherlink.com 1.10,2013-08-26 01:18:00,
2013-08-25 18:33:00,63.0,59.0,29.90,North,360,0.0,0.0,88,0.00,,,0.01,46,weatherlink.com 1.10,2013-08-26 01:33:00,
2013-08-25 18:48:00,62.5,59.0,29.90,North,360,0.0,0.0,89,0.00,,,0.01,30,weatherlink.com 1.10,2013-08-26 01:48:00,
2013-08-25 19:03:00,62.0,59.0,29.90,North,360,0.0,0.0,90,0.00,,,0.01,14,weatherlink.com 1.10,2013-08-26 02:03:00,
2013-08-25 19:18:00,61.4,59.0,29.90,North,-999,0.0,0.0,91,0.00,,,0.01,5,weatherlink.com 1.10,2013-08-26 02:18:00,
2013-08-25 19:33:00,61.0,59.0,29.90,North,-999,0.0,0.0,92,0.00,,,0.01,0,weatherlink.com 1.10,2013-08-26 02:33:00,
2013-08-25 19:48:00,60.8,59.0,29.90,North,-999,0.0,0.0,92,0.00,,,0.01,0,weatherlink.com 1.10,2013-08-26 02:48:00,
2013-08-25 20:03:00,60.5,59.0,29.91,North,-999,0.0,0.0,93,0.00,,,0.01,0,weatherlink.com 1.10,2013-08-26 03:03:00,
2013-08-25 20:18:00,60.4,58.0,29.91,North,-999,0.0,0.0,93,0.00,,,0.01,0,weatherlink.com 1.10,2013-08-26 03:18:00,
2013-08-25 20:33:00,60.4,58.0,29.91,North,360,0.0,0.0,93,0.00,,,0.01,0,weatherlink.com 1.10,2013-08-26 03:33:00,
2013-08-25 20:48:00,60.3,58.0,29.91,North,360,0.0,0.0,93,0.00,,,0.01,0,weatherlink.com 1.10,2013-08-26 03:48:00,
2013-08-25 21:03:00,60.3,58.0,29.92,North,-999,0.0,0.0,93,0.00,,,0.01,0,weatherlink.com 1.10,2013-08-26 04:03:00,
2013-08-25 21:18:00,60.0,58.0,29.92,North,-999,0.0,0.0,93,0.00,,,0.01,0,weatherlink.com 1.10,2013-08-26 04:18:00,
2013-08-25 21:33:00,59.7,58.0,29.92,North,-999,0.0,0.0,93,0.00,,,0.01,0,weatherlink.com 1.10,2013-08-26 04:33:00,
2013-08-25 21:48:00,59.5,58.0,29.93,North,-999,0.0,0.0,93,0.00,,,0.01,0,weatherlink.com 1.10,2013-08-26 04:48:00,
2013-08-25 22:03:00,59.4,57.0,29.93,North,-999,0.0,0.0,93,0.00,,,0.01,0,weatherlink.com 1.10,2013-08-26 05:03:00,
2013-08-25 22:18:00,59.3,57.0,29.93,North,360,0.0,0.0,93,0.00,,,0.01,0,weatherlink.com 1.10,2013-08-26 05:18:00,
2013-08-25 22:33:00,59.3,57.0,29.93,North,360,0.0,0.0,93,0.00,,,0.01,0,weatherlink.com 1.10,2013-08-26 05:33:00,
2013-08-25 22:48:00,59.3,57.0,29.93,North,-999,0.0,0.0,93,0.00,,,0.01,0,weatherlink.com 1.10,2013-08-26 05:48:00,
2013-08-25 23:03:00,59.4,57.0,29.93,North,-999,0.0,0.0,93,0.00,,,0.01,0,weatherlink.com 1.10,2013-08-26 06:03:00,
2013-08-25 23:18:00,59.5,57.0,29.94,North,-999,0.0,0.0,92,0.00,,,0.01,0,weatherlink.com 1.10,2013-08-26 06:18:00,
2013-08-25 23:33:00,59.5,57.0,29.93,North,-999,0.0,0.0,92,0.00,,,0.01,0,weatherlink.com 1.10,2013-08-26 06:33:00,
2013-08-25 23:48:00,59.4,57.0,29.93,North,-999,0.0,0.0,92,0.00,,,0.01,0,weatherlink.com 1.10,2013-08-26 06:48:00,